sensor_id;sensor_type;location;lat;lon;timestamp;pressure;altitude;pressure_sealevel;temperature;humidity
55576;BME280;41437;45.478;9.116;2023-10-08T10:36:43;100569.25;;;22.97;92.41
55576;BME280;41437;45.478;9.116;2023-10-08T10:39:53;100568.78;;;23.04;92.42
55576;BME280;41437;45.478;9.116;2023-10-08T10:42:56;100563.47;;;23.02;90.56
55576;BME280;41437;45.478;9.116;2023-10-08T10:45:59;100558.56;;;23.17;89.37
55576;BME280;41437;45.478;9.116;2023-10-08T11:22:03;100522.38;;;23.67;81.16
55576;BME280;41437;45.478;9.116;2023-10-08T11:25:20;100523.06;;;23.73;81.86
55576;BME280;41437;45.478;9.116;2023-10-08T11:28:23;100524.19;;;23.72;81.09
55576;BME280;41437;45.478;9.116;2023-10-08T11:44:39;100502.13;;;24.85;77.77
55576;BME280;41437;45.478;9.116;2023-10-08T11:47:41;100502.88;;;24.94;76.05
55576;BME280;41437;45.478;9.116;2023-10-08T11:50:45;100498.22;;;24.77;76.72
55576;BME280;41437;45.478;9.116;2023-10-08T11:53:47;100493.97;;;24.63;78.03
55576;BME280;41437;45.478;9.116;2023-10-08T11:57:47;100472.41;;;24.20;81.39
55576;BME280;41437;45.478;9.116;2023-10-08T12:00:50;100469.66;;;24.02;83.40
55576;BME280;41437;45.478;9.116;2023-10-08T12:03:53;100475.59;;;24.10;80.58
55576;BME280;41437;45.478;9.116;2023-10-08T12:06:59;100467.50;;;24.08;80.25
55576;BME280;41437;45.478;9.116;2023-10-08T12:10:07;100463.38;;;24.05;81.33
55576;BME280;41437;45.478;9.116;2023-10-08T12:13:11;100456.53;;;24.15;81.04
55576;BME280;41437;45.478;9.116;2023-10-08T12:16:14;100455.16;;;24.30;81.09
55576;BME280;41437;45.478;9.116;2023-10-08T12:19:21;100451.38;;;24.26;80.69
55576;BME280;41437;45.478;9.116;2023-10-08T12:22:22;100445.34;;;24.36;79.71
55576;BME280;41437;45.478;9.116;2023-10-08T12:25:24;100445.53;;;24.40;80.51
55576;BME280;41437;45.478;9.116;2023-10-08T12:28:27;100441.69;;;24.44;81.01
55576;BME280;41437;45.478;9.116;2023-10-08T12:31:28;100437.44;;;24.38;81.91
55576;BME280;41437;45.478;9.116;2023-10-08T12:34:30;100434.88;;;24.45;80.89
55576;BME280;41437;45.478;9.116;2023-10-08T12:37:35;100431.09;;;24.41;80.57
55576;BME280;41437;45.478;9.116;2023-10-08T12:40:37;100427.00;;;24.60;78.28
55576;BME280;41437;45.478;9.116;2023-10-08T12:43:54;100425.66;;;24.66;77.30
55576;BME280;41437;45.478;9.116;2023-10-08T12:46:58;100424.41;;;24.54;78.61
55576;BME280;41437;45.478;9.116;2023-10-08T12:50:00;100420.56;;;24.59;78.14
55576;BME280;41437;45.478;9.116;2023-10-08T12:53:01;100416.25;;;24.62;77.48
55576;BME280;41437;45.478;9.116;2023-10-08T12:56:05;100412.34;;;24.75;76.45
55576;BME280;41437;45.478;9.116;2023-10-08T12:59:08;100409.88;;;24.73;76.56
55576;BME280;41437;45.478;9.116;2023-10-08T13:02:20;100403.25;;;24.69;77.12
55576;BME280;41437;45.478;9.116;2023-10-08T13:05:28;100406.69;;;24.75;75.97
55576;BME280;41437;45.478;9.116;2023-10-08T13:08:30;100402.31;;;24.86;74.18
55576;BME280;41437;45.478;9.116;2023-10-08T13:11:32;100392.13;;;24.94;73.61
55576;BME280;41437;45.478;9.116;2023-10-08T13:14:35;100393.38;;;24.84;75.41
55576;BME280;41437;45.478;9.116;2023-10-08T13:17:37;100393.53;;;25.09;73.18
55576;BME280;41437;45.478;9.116;2023-10-08T13:20:42;100384.91;;;25.26;70.79
55576;BME280;41437;45.478;9.116;2023-10-08T13:23:45;100377.56;;;25.13;72.32
55576;BME280;41437;45.478;9.116;2023-10-08T13:26:47;100377.91;;;25.11;73.55
55576;BME280;41437;45.478;9.116;2023-10-08T13:29:50;100376.03;;;25.15;73.00
55576;BME280;41437;45.478;9.116;2023-10-08T13:32:52;100370.53;;;25.19;72.76
55576;BME280;41437;45.478;9.116;2023-10-08T13:35:53;100363.41;;;25.21;72.47
55576;BME280;41437;45.478;9.116;2023-10-08T13:38:55;100366.94;;;25.30;71.84
55576;BME280;41437;45.478;9.116;2023-10-08T13:41:57;100364.47;;;25.29;72.49
55576;BME280;41437;45.478;9.116;2023-10-08T13:45:03;100355.34;;;25.44;71.78
55576;BME280;41437;45.478;9.116;2023-10-08T13:48:08;100353.63;;;25.52;67.57
55576;BME280;41437;45.478;9.116;2023-10-08T13:51:14;100351.50;;;25.61;62.16
55576;BME280;41437;45.478;9.116;2023-10-08T13:54:20;100352.91;;;25.55;60.96
55576;BME280;41437;45.478;9.116;2023-10-08T13:57:22;100355.84;;;25.58;59.92
55576;BME280;41437;45.478;9.116;2023-10-08T14:00:28;100346.81;;;25.65;58.44
55576;BME280;41437;45.478;9.116;2023-10-08T14:03:36;100345.50;;;25.63;59.64
55576;BME280;41437;45.478;9.116;2023-10-08T14:06:38;100345.22;;;26.01;58.29
